Time;durP1;ratioP1;P1;durP2;ratioP2;P2;SDS_P1;SDS_P2;PMS_P1;PMS_P2;Temp;Humidity;BMP_temperature;BMP_pressure;BME280_temperature;BME280_humidity;BME280_pressure;Samples;Min_cycle;Max_cycle;Signal;HPM_P1;HPM_P2
2024/02/21 00:01:33;;;;;;;48.25;8.93;;;;;;;;;;5054038;28;20130;-71
2024/02/21 00:04:19;;;;;;;39.45;8.80;;;;;;;;;;5054536;28;20040;-71
2024/02/21 00:07:05;;;;;;;31.75;7.55;;;;;;;;;;5053319;28;20017;-71
2024/02/21 00:09:50;;;;;;;36.45;8.15;;;;;;;;;;5053105;28;20025;-71
2024/02/21 00:12:36;;;;;;;40.58;8.80;;;;;;;;;;5055440;28;20028;-71
2024/02/21 00:15:22;;;;;;;30.60;8.35;;;;;;;;;;5072336;28;20021;-71
2024/02/21 00:18:08;;;;;;;28.95;8.15;;;;;;;;;;5060947;28;20020;-71
2024/02/21 00:20:53;;;;;;;26.75;7.13;;;;;;;;;;5052341;28;20029;-71
2024/02/21 00:23:39;;;;;;;32.65;8.98;;;;;;;;;;5040405;28;20034;-71
2024/02/21 00:26:25;;;;;;;22.95;6.38;;;;;;;;;;5072526;28;20020;-71
2024/02/21 00:29:11;;;;;;;31.15;7.55;;;;;;;;;;5051470;28;20021;-71
2024/02/21 00:31:56;;;;;;;40.08;7.68;;;;;;;;;;5066070;28;20028;-71
2024/02/21 00:34:43;;;;;;;28.90;6.78;;;;;;;;;;5070349;28;20069;-71
2024/02/21 00:37:29;;;;;;;33.33;9.38;;;;;;;;;;5071022;28;20036;-71
2024/02/21 00:40:19;;;;;;;25.08;6.38;;;;;;;;;;5071348;28;20020;-71
2024/02/21 00:43:05;;;;;;;29.80;7.95;;;;;;;;;;5021068;28;20033;-71
2024/02/21 00:45:51;;;;;;;39.63;7.72;;;;;;;;;;5052197;28;20033;-71
2024/02/21 00:48:36;;;;;;;37.47;7.65;;;;;;;;;;5062183;28;20059;-71
2024/02/21 00:51:22;;;;;;;34.90;9.13;;;;;;;;;;5072319;28;20477;-71
2024/02/21 00:54:07;;;;;;;40.55;8.77;;;;;;;;;;5050233;28;20021;-71
2024/02/21 00:56:53;;;;;;;27.23;6.82;;;;;;;;;;5051260;28;20083;-71
2024/02/21 00:59:39;;;;;;;32.10;6.50;;;;;;;;;;5044715;28;20501;-71
2024/02/21 01:02:24;;;;;;;27.95;7.72;;;;;;;;;;5073100;28;20138;-71
2024/02/21 01:05:10;;;;;;;23.35;7.82;;;;;;;;;;5065428;28;20032;-71
2024/02/21 01:07:56;;;;;;;26.58;7.13;;;;;;;;;;5032860;28;20499;-71
2024/02/21 01:10:41;;;;;;;35.15;6.53;;;;;;;;;;5019744;28;20017;-71
2024/02/21 01:13:27;;;;;;;19.23;6.25;;;;;;;;;;5051725;28;20056;-71
2024/02/21 01:16:13;;;;;;;36.05;7.28;;;;;;;;;;5062507;28;20402;-71
2024/02/21 01:18:58;;;;;;;23.52;6.07;;;;;;;;;;5051846;28;20025;-71
2024/02/21 01:21:44;;;;;;;23.83;6.38;;;;;;;;;;5052841;28;20052;-71
2024/02/21 01:24:30;;;;;;;27.85;6.00;;;;;;;;;;5052192;28;20103;-71
2024/02/21 01:27:16;;;;;;;27.60;6.47;;;;;;;;;;5052279;28;20029;-71
2024/02/21 01:30:02;;;;;;;21.10;5.80;;;;;;;;;;5052773;28;20048;-71
2024/02/21 01:32:47;;;;;;;19.75;6.88;;;;;;;;;;5037125;28;20597;-71
2024/02/21 01:35:34;;;;;;;25.38;6.65;;;;;;;;;;5064361;28;20055;-71
2024/02/21 01:38:19;;;;;;;29.92;6.90;;;;;;;;;;5072370;28;20025;-71
2024/02/21 01:41:06;;;;;;;25.58;5.68;;;;;;;;;;5040297;28;20386;-71
2024/02/21 01:43:51;;;;;;;30.67;7.28;;;;;;;;;;5035870;28;20155;-71
2024/02/21 01:46:37;;;;;;;22.00;7.05;;;;;;;;;;5037951;28;20498;-71
2024/02/21 01:49:23;;;;;;;26.98;7.22;;;;;;;;;;5038607;28;20036;-71
2024/02/21 01:52:10;;;;;;;26.95;8.90;;;;;;;;;;5052171;28;20100;-71
2024/02/21 01:54:57;;;;;;;24.95;7.10;;;;;;;;;;5050607;28;20044;-71
2024/02/21 01:57:45;;;;;;;27.98;8.05;;;;;;;;;;5037191;28;20640;-71
2024/02/21 02:00:30;;;;;;;34.25;8.38;;;;;;;;;;5034498;28;20613;-71
2024/02/21 02:03:16;;;;;;;22.08;6.40;;;;;;;;;;5037202;28;20032;-71
2024/02/21 02:06:03;;;;;;;17.15;6.28;;;;;;;;;;5038954;28;20409;-71
2024/02/21 02:08:49;;;;;;;26.15;5.93;;;;;;;;;;5036737;28;20057;-71
2024/02/21 02:11:35;;;;;;;20.02;5.85;;;;;;;;;;5056234;28;20154;-71
2024/02/21 02:14:21;;;;;;;20.92;6.57;;;;;;;;;;5059494;28;20552;-71
2024/02/21 02:17:07;;;;;;;19.08;5.78;;;;;;;;;;5051150;28;20108;-71
2024/02/21 02:19:52;;;;;;;22.00;5.30;;;;;;;;;;5050015;28;20025;-71
2024/02/21 02:22:39;;;;;;;17.13;5.22;;;;;;;;;;5052154;28;20029;-71
2024/02/21 02:25:25;;;;;;;29.23;6.55;;;;;;;;;;5035377;28;20074;-71
2024/02/21 02:28:11;;;;;;;35.40;5.93;;;;;;;;;;5031668;28;20025;-71
2024/02/21 02:30:56;;;;;;;29.90;6.53;;;;;;;;;;5033778;28;20017;-71
2024/02/21 02:33:44;;;;;;;23.85;5.82;;;;;;;;;;5067314;28;20056;-70
2024/02/21 02:36:33;;;;;;;23.70;5.28;;;;;;;;;;5036364;28;20029;-71
2024/02/21 02:40:14;;;;;;;18.65;6.80;;;;;;;;;;5031442;28;20049;-71
2024/02/21 02:43:00;;;;;;;17.58;5.43;;;;;;;;;;5036826;28;20495;-71
2024/02/21 02:45:45;;;;;;;32.58;6.22;;;;;;;;;;5030929;28;20037;-71
2024/02/21 02:48:31;;;;;;;30.92;6.97;;;;;;;;;;5010100;28;20036;-71
2024/02/21 02:51:17;;;;;;;27.50;6.47;;;;;;;;;;5038213;28;20021;-72
2024/02/21 02:54:03;;;;;;;23.35;7.10;;;;;;;;;;5025870;28;20028;-71
2024/02/21 02:56:49;;;;;;;49.40;6.95;;;;;;;;;;5032746;28;20021;-71
2024/02/21 02:59:35;;;;;;;38.67;7.65;;;;;;;;;;5020767;28;20079;-70
2024/02/21 03:02:21;;;;;;;38.08;6.82;;;;;;;;;;5034014;28;20033;-71
2024/02/21 03:05:17;;;;;;;27.27;6.68;;;;;;;;;;5033989;28;20021;-71
2024/02/21 03:08:06;;;;;;;19.85;5.75;;;;;;;;;;5034872;28;20033;-71
2024/02/21 03:10:52;;;;;;;30.17;5.20;;;;;;;;;;5021352;28;20029;-71
2024/02/21 03:13:38;;;;;;;24.38;4.57;;;;;;;;;;5037076;28;20501;-71
2024/02/21 03:16:23;;;;;;;32.97;6.00;;;;;;;;;;5026154;28;20021;-71
2024/02/21 03:19:09;;;;;;;18.85;5.13;;;;;;;;;;5040407;28;20398;-71
2024/02/21 03:21:55;;;;;;;25.02;6.30;;;;;;;;;;5023998;28;20029;-71
2024/02/21 03:24:41;;;;;;;34.90;6.28;;;;;;;;;;5034010;28;20032;-71
2024/02/21 03:27:26;;;;;;;35.03;6.70;;;;;;;;;;5027122;28;20419;-71
2024/02/21 03:30:12;;;;;;;30.52;5.57;;;;;;;;;;5034053;28;20395;-71
2024/02/21 03:32:58;;;;;;;31.70;5.03;;;;;;;;;;5040706;28;20029;-71
2024/02/21 03:35:44;;;;;;;17.08;4.50;;;;;;;;;;5033111;28;20033;-71
2024/02/21 03:38:29;;;;;;;22.63;5.07;;;;;;;;;;5040225;28;20021;-71
2024/02/21 03:41:15;;;;;;;37.42;5.85;;;;;;;;;;5034080;28;20541;-71
2024/02/21 03:44:01;;;;;;;21.55;4.25;;;;;;;;;;5036635;28;20025;-71
2024/02/21 03:46:46;;;;;;;15.35;5.05;;;;;;;;;;5054097;28;20033;-71
2024/02/21 03:49:32;;;;;;;14.40;4.18;;;;;;;;;;5036524;28;20029;-71
2024/02/21 03:52:18;;;;;;;28.55;4.30;;;;;;;;;;5051848;28;20024;-71
2024/02/21 03:55:04;;;;;;;17.15;3.95;;;;;;;;;;5052607;28;20114;-71
2024/02/21 03:57:49;;;;;;;22.08;4.70;;;;;;;;;;5032037;28;20079;-71
2024/02/21 04:00:35;;;;;;;24.65;4.68;;;;;;;;;;5032679;28;20033;-71
2024/02/21 04:03:20;;;;;;;32.85;4.32;;;;;;;;;;5042108;28;20028;-71
2024/02/21 04:06:06;;;;;;;30.58;5.55;;;;;;;;;;5052352;28;20116;-71
2024/02/21 04:08:52;;;;;;;22.85;4.45;;;;;;;;;;5052601;28;20025;-71
2024/02/21 04:11:37;;;;;;;32.42;4.25;;;;;;;;;;5046169;28;20026;-71
2024/02/21 04:14:23;;;;;;;25.15;6.13;;;;;;;;;;5019912;28;20100;-71
2024/02/21 04:17:08;;;;;;;39.47;4.93;;;;;;;;;;5037646;28;20017;-71
2024/02/21 04:20:02;;;;;;;36.67;5.50;;;;;;;;;;5053431;28;20021;-70
2024/02/21 04:22:47;;;;;;;34.10;5.07;;;;;;;;;;5036925;28;20021;-70
2024/02/21 04:25:33;;;;;;;16.15;5.03;;;;;;;;;;5033236;28;20022;-71
2024/02/21 04:28:18;;;;;;;26.90;5.68;;;;;;;;;;5033572;28;20053;-71
2024/02/21 04:31:04;;;;;;;37.65;6.22;;;;;;;;;;5033446;28;20481;-71
2024/02/21 04:33:50;;;;;;;26.75;4.97;;;;;;;;;;5034998;28;20025;-71
2024/02/21 04:36:35;;;;;;;30.05;7.35;;;;;;;;;;5005883;28;20049;-71
2024/02/21 04:39:21;;;;;;;23.85;4.75;;;;;;;;;;5045547;28;20025;-71
2024/02/21 04:42:06;;;;;;;32.25;6.50;;;;;;;;;;5053372;28;20104;-72
2024/02/21 04:44:53;;;;;;;34.03;4.82;;;;;;;;;;5042342;28;20037;-71
2024/02/21 04:47:38;;;;;;;19.88;4.22;;;;;;;;;;5017484;28;20017;-71
2024/02/21 04:50:24;;;;;;;39.78;5.80;;;;;;;;;;5038977;28;20102;-71
2024/02/21 04:53:09;;;;;;;33.33;4.38;;;;;;;;;;5032450;28;20163;-71
2024/02/21 04:55:55;;;;;;;31.50;6.28;;;;;;;;;;5037056;28;20571;-71
2024/02/21 04:58:41;;;;;;;34.47;6.40;;;;;;;;;;5032343;28;20454;-71
2024/02/21 05:01:28;;;;;;;30.92;4.40;;;;;;;;;;5018322;28;20049;-71
2024/02/21 05:04:13;;;;;;;28.52;4.88;;;;;;;;;;5018514;28;20029;-71
2024/02/21 05:07:00;;;;;;;19.52;4.80;;;;;;;;;;5031700;28;20029;-71
2024/02/21 05:09:46;;;;;;;27.92;4.63;;;;;;;;;;5042204;28;20091;-71
2024/02/21 05:12:31;;;;;;;22.73;4.35;;;;;;;;;;5032184;28;20028;-71
2024/02/21 05:15:17;;;;;;;23.08;4.82;;;;;;;;;;5048699;28;20486;-71
2024/02/21 05:18:03;;;;;;;32.28;4.95;;;;;;;;;;5038219;28;20029;-71
2024/02/21 05:20:48;;;;;;;22.08;4.43;;;;;;;;;;5031423;28;20053;-71
2024/02/21 05:23:34;;;;;;;27.95;5.80;;;;;;;;;;5043487;28;20027;-71
2024/02/21 05:26:29;;;;;;;30.90;5.40;;;;;;;;;;5051477;28;20021;-71
2024/02/21 05:29:15;;;;;;;22.08;4.80;;;;;;;;;;5033713;28;20516;-71
2024/02/21 05:32:00;;;;;;;33.47;4.35;;;;;;;;;;5031474;28;20040;-71
2024/02/21 05:34:49;;;;;;;13.55;4.10;;;;;;;;;;5041600;28;20025;-71
2024/02/21 05:37:35;;;;;;;22.23;4.85;;;;;;;;;;5037912;28;20032;-71
2024/02/21 05:40:20;;;;;;;39.20;5.95;;;;;;;;;;5046332;28;20116;-71
2024/02/21 05:43:07;;;;;;;35.90;7.07;;;;;;;;;;5038429;28;20025;-71
2024/02/21 05:45:53;;;;;;;38.80;5.55;;;;;;;;;;5037826;28;20108;-71
2024/02/21 05:48:38;;;;;;;20.50;4.40;;;;;;;;;;5051859;28;20029;-71
2024/02/21 05:51:24;;;;;;;39.63;5.93;;;;;;;;;;5052757;28;20105;-71
2024/02/21 05:54:10;;;;;;;30.40;4.72;;;;;;;;;;5052103;28;20415;-71
2024/02/21 05:56:56;;;;;;;18.55;4.18;;;;;;;;;;5052388;28;20442;-71
2024/02/21 05:59:43;;;;;;;23.95;5.88;;;;;;;;;;5051018;28;20029;-71
2024/02/21 06:02:29;;;;;;;25.65;4.30;;;;;;;;;;5050397;28;20525;-71
2024/02/21 06:05:14;;;;;;;27.88;4.75;;;;;;;;;;5052216;28;20028;-71
2024/02/21 06:08:00;;;;;;;32.10;5.65;;;;;;;;;;5045630;28;20024;-71
2024/02/21 06:10:46;;;;;;;22.02;4.60;;;;;;;;;;5048078;28;20017;-71
2024/02/21 06:13:31;;;;;;;22.48;4.15;;;;;;;;;;5035733;28;20402;-71
2024/02/21 06:16:17;;;;;;;22.25;4.28;;;;;;;;;;5033416;28;20037;-71
2024/02/21 06:19:03;;;;;;;33.20;4.43;;;;;;;;;;5030446;28;20026;-71
2024/02/21 06:21:48;;;;;;;33.95;4.85;;;;;;;;;;5035762;28;20565;-71
2024/02/21 06:24:36;;;;;;;16.63;4.38;;;;;;;;;;5034681;28;20026;-71
2024/02/21 06:27:21;;;;;;;29.00;4.07;;;;;;;;;;5028634;28;20055;-71
2024/02/21 06:30:08;;;;;;;19.60;3.97;;;;;;;;;;5034119;28;20111;-71
2024/02/21 06:32:55;;;;;;;31.17;5.65;;;;;;;;;;5051525;28;20037;-71
2024/02/21 06:35:42;;;;;;;48.72;5.88;;;;;;;;;;5053771;28;20025;-71
2024/02/21 06:38:28;;;;;;;34.92;4.43;;;;;;;;;;5050141;28;20103;-71
2024/02/21 06:41:18;;;;;;;18.70;4.13;;;;;;;;;;5033734;28;20079;-71
2024/02/21 06:44:04;;;;;;;33.25;4.32;;;;;;;;;;5024621;28;20025;-71
2024/02/21 06:46:50;;;;;;;18.25;4.30;;;;;;;;;;5035055;28;20028;-71
2024/02/21 06:49:37;;;;;;;27.35;4.45;;;;;;;;;;5033718;28;20529;-71
2024/02/21 06:52:23;;;;;;;14.20;4.38;;;;;;;;;;5049793;28;20025;-71
2024/02/21 06:55:09;;;;;;;24.33;3.92;;;;;;;;;;5052787;28;20025;-71
2024/02/21 06:57:55;;;;;;;30.90;5.13;;;;;;;;;;5039325;28;20025;-71
2024/02/21 07:00:42;;;;;;;27.63;5.00;;;;;;;;;;5033420;28;20127;-72
2024/02/21 07:03:28;;;;;;;31.83;4.78;;;;;;;;;;5028214;28;20033;-72
2024/02/21 07:06:13;;;;;;;24.35;4.22;;;;;;;;;;5033374;28;20494;-72
2024/02/21 07:08:59;;;;;;;22.02;3.50;;;;;;;;;;5042343;28;20040;-72
2024/02/21 07:11:44;;;;;;;26.13;5.28;;;;;;;;;;5033039;28;20021;-72
2024/02/21 07:14:32;;;;;;;19.40;3.33;;;;;;;;;;5040190;28;20483;-72
2024/02/21 07:17:17;;;;;;;22.90;4.43;;;;;;;;;;5019596;28;20382;-72
2024/02/21 07:20:03;;;;;;;25.90;4.90;;;;;;;;;;5034786;28;20033;-72
2024/02/21 07:22:49;;;;;;;25.70;5.10;;;;;;;;;;5054335;28;20520;-71
2024/02/21 07:25:35;;;;;;;23.30;4.68;;;;;;;;;;5053282;28;20029;-71
2024/02/21 07:28:21;;;;;;;33.30;4.88;;;;;;;;;;5054935;28;20028;-71
2024/02/21 07:31:06;;;;;;;29.67;5.47;;;;;;;;;;5053899;28;20513;-71
2024/02/21 07:33:52;;;;;;;30.83;4.78;;;;;;;;;;5044634;28;20387;-71
2024/02/21 07:36:38;;;;;;;35.13;4.40;;;;;;;;;;5052455;28;20347;-71
2024/02/21 07:39:24;;;;;;;23.85;4.88;;;;;;;;;;5038608;28;20021;-71
2024/02/21 07:42:09;;;;;;;23.42;5.43;;;;;;;;;;5028152;28;20029;-71
2024/02/21 07:44:56;;;;;;;21.17;4.63;;;;;;;;;;5036332;28;20126;-71
2024/02/21 07:47:42;;;;;;;24.05;6.72;;;;;;;;;;5039153;28;20086;-72
2024/02/21 07:50:27;;;;;;;30.33;5.05;;;;;;;;;;5047144;28;20525;-71
2024/02/21 07:53:15;;;;;;;25.90;4.60;;;;;;;;;;5052667;28;20048;-71
2024/02/21 07:56:00;;;;;;;24.65;4.80;;;;;;;;;;5043160;28;20085;-72
2024/02/21 07:58:48;;;;;;;28.05;4.75;;;;;;;;;;5032648;28;20026;-71
2024/02/21 08:01:34;;;;;;;28.70;4.25;;;;;;;;;;5041068;28;20390;-72
2024/02/21 08:04:20;;;;;;;32.15;4.05;;;;;;;;;;5053936;28;20078;-72
2024/02/21 08:07:06;;;;;;;15.52;4.40;;;;;;;;;;5053657;28;20021;-71
2024/02/21 08:09:51;;;;;;;22.20;4.78;;;;;;;;;;5018677;28;20102;-74
2024/02/21 08:12:37;;;;;;;20.40;5.32;;;;;;;;;;5035519;28;20103;-72
2024/02/21 08:15:28;;;;;;;26.75;4.38;;;;;;;;;;5048615;28;20070;-72
2024/02/21 08:18:13;;;;;;;20.23;4.13;;;;;;;;;;5051480;28;20151;-72
2024/02/21 08:20:59;;;;;;;27.27;5.03;;;;;;;;;;5022058;28;20114;-72
2024/02/21 08:23:45;;;;;;;26.98;4.38;;;;;;;;;;5031937;28;20087;-71
2024/02/21 08:26:31;;;;;;;31.35;4.03;;;;;;;;;;5048390;28;20102;-71
2024/02/21 08:29:16;;;;;;;19.58;3.67;;;;;;;;;;5053268;28;20138;-71
2024/02/21 08:32:02;;;;;;;24.55;3.47;;;;;;;;;;5051945;28;20025;-71
2024/02/21 08:34:48;;;;;;;21.15;4.05;;;;;;;;;;5037499;28;20029;-71
2024/02/21 08:37:33;;;;;;;33.13;6.00;;;;;;;;;;5051575;28;20079;-71
2024/02/21 08:40:21;;;;;;;16.20;3.30;;;;;;;;;;5053570;28;20025;-71
2024/02/21 08:43:06;;;;;;;15.30;2.83;;;;;;;;;;5036666;28;20021;-71
2024/02/21 08:45:52;;;;;;;16.83;3.35;;;;;;;;;;5036800;28;20032;-71
2024/02/21 08:48:38;;;;;;;22.35;2.80;;;;;;;;;;5051595;28;20398;-72
2024/02/21 08:51:23;;;;;;;16.77;3.55;;;;;;;;;;5033620;28;20033;-72
2024/02/21 08:54:09;;;;;;;17.27;3.05;;;;;;;;;;5017494;28;20032;-71
2024/02/21 08:56:55;;;;;;;21.00;3.72;;;;;;;;;;5038183;28;20045;-71
2024/02/21 08:59:40;;;;;;;19.23;3.25;;;;;;;;;;5031537;28;20021;-72
2024/02/21 09:02:26;;;;;;;19.13;3.40;;;;;;;;;;5036058;28;20040;-72
2024/02/21 09:05:11;;;;;;;20.45;3.55;;;;;;;;;;5031854;28;20416;-71
2024/02/21 09:07:57;;;;;;;24.33;3.72;;;;;;;;;;5046156;28;20060;-72
2024/02/21 09:10:43;;;;;;;19.67;4.25;;;;;;;;;;5051192;28;20100;-72
2024/02/21 09:13:29;;;;;;;25.85;4.47;;;;;;;;;;5056388;28;20401;-71
2024/02/21 09:16:15;;;;;;;27.42;5.00;;;;;;;;;;5039338;28;20634;-72
2024/02/21 09:19:01;;;;;;;24.60;3.78;;;;;;;;;;5031895;28;20518;-71
2024/02/21 09:21:46;;;;;;;18.77;3.75;;;;;;;;;;5034008;28;20037;-71
2024/02/21 09:24:32;;;;;;;18.58;3.70;;;;;;;;;;5031963;28;20022;-72
2024/02/21 09:27:17;;;;;;;22.48;4.93;;;;;;;;;;5054482;28;20024;-71
2024/02/21 09:30:05;;;;;;;19.33;4.15;;;;;;;;;;5051042;28;20498;-71
2024/02/21 09:32:50;;;;;;;22.98;4.35;;;;;;;;;;5052224;28;20017;-72
2024/02/21 09:35:36;;;;;;;17.83;4.40;;;;;;;;;;5052208;28;20104;-71
2024/02/21 09:38:22;;;;;;;23.40;3.75;;;;;;;;;;5052057;28;20017;-72
2024/02/21 09:41:11;;;;;;;24.55;4.70;;;;;;;;;;5052081;28;20022;-71
2024/02/21 09:43:57;;;;;;;24.05;5.13;;;;;;;;;;5036269;28;20028;-72
2024/02/21 09:46:55;;;;;;;23.73;3.75;;;;;;;;;;5041897;28;20040;-71
2024/02/21 09:49:42;;;;;;;14.70;3.55;;;;;;;;;;5039774;28;20555;-71
2024/02/21 09:52:28;;;;;;;22.70;3.50;;;;;;;;;;5051309;28;20486;-71
2024/02/21 09:55:15;;;;;;;16.00;4.53;;;;;;;;;;5035797;28;20025;-71
2024/02/21 09:58:04;;;;;;;16.15;4.22;;;;;;;;;;5037179;28;20082;-71
2024/02/21 10:00:50;;;;;;;20.20;4.35;;;;;;;;;;5035581;28;20025;-72
2024/02/21 10:03:35;;;;;;;32.10;4.25;;;;;;;;;;5031202;28;20423;-72
2024/02/21 10:06:21;;;;;;;30.27;4.25;;;;;;;;;;5043144;28;20020;-71
2024/02/21 10:09:07;;;;;;;22.30;4.50;;;;;;;;;;5051520;28;20048;-71
2024/02/21 10:11:53;;;;;;;22.40;4.45;;;;;;;;;;5036584;28;20028;-72
2024/02/21 10:14:39;;;;;;;22.63;4.28;;;;;;;;;;5051930;28;20033;-72
2024/02/21 10:17:24;;;;;;;20.65;3.88;;;;;;;;;;5050972;28;20028;-71
2024/02/21 10:20:11;;;;;;;12.20;2.78;;;;;;;;;;5054046;28;20113;-72
2024/02/21 10:23:08;;;;;;;15.63;2.85;;;;;;;;;;5035662;28;20032;-72
2024/02/21 10:25:53;;;;;;;;;;;;;;;;;;5038219;28;20032;-73
2024/02/21 10:28:42;;;;;;;11.88;3.03;;;;;;;;;;5050556;28;20007;-71
2024/02/21 10:31:28;;;;;;;16.75;3.70;;;;;;;;;;5037582;28;20127;-72
2024/02/21 10:34:16;;;;;;;16.90;3.95;;;;;;;;;;5052079;28;20064;-72
2024/02/21 10:37:06;;;;;;;26.90;4.65;;;;;;;;;;5061231;23;20094;-75
2024/02/21 10:39:53;;;;;;;20.77;3.53;;;;;;;;;;5038190;28;20043;-75
2024/02/21 10:42:39;;;;;;;10.57;3.25;;;;;;;;;;5055231;28;20025;-75
2024/02/21 10:45:31;;;;;;;18.00;3.97;;;;;;;;;;5051986;28;20025;-75
2024/02/21 10:48:28;;;;;;;17.13;3.85;;;;;;;;;;5027390;28;20037;-74
2024/02/21 10:51:22;;;;;;;22.45;4.85;;;;;;;;;;5009872;28;20029;-74
2024/02/21 10:54:13;;;;;;;24.83;4.40;;;;;;;;;;5016928;28;20057;-75
2024/02/21 10:57:00;;;;;;;18.38;3.40;;;;;;;;;;5011244;28;20437;-74
2024/02/21 10:59:46;;;;;;;28.05;3.63;;;;;;;;;;5012104;28;20034;-74
2024/02/21 11:02:32;;;;;;;23.23;4.45;;;;;;;;;;5031549;28;20026;-75
2024/02/21 11:05:18;;;;;;;12.50;3.85;;;;;;;;;;5030240;28;20034;-74
2024/02/21 11:08:05;;;;;;;18.10;3.72;;;;;;;;;;5026187;28;20477;-75
2024/02/21 11:10:56;;;;;;;16.85;4.55;;;;;;;;;;5013195;28;20024;-74
2024/02/21 11:13:43;;;;;;;21.13;5.20;;;;;;;;;;5020013;28;20029;-75
2024/02/21 11:16:35;;;;;;;11.55;3.70;;;;;;;;;;5027045;28;20487;-74
2024/02/21 11:19:25;;;;;;;14.05;3.20;;;;;;;;;;5029677;28;20105;-75
2024/02/21 11:22:16;;;;;;;11.63;3.03;;;;;;;;;;5034284;28;20025;-74
2024/02/21 11:25:11;;;;;;;11.60;2.92;;;;;;;;;;5032993;28;20095;-75
2024/02/21 11:28:03;;;;;;;10.15;3.10;;;;;;;;;;5034453;28;20140;-75
2024/02/21 11:30:51;;;;;;;13.10;2.63;;;;;;;;;;5033801;28;20024;-75
2024/02/21 11:33:40;;;;;;;23.20;4.95;;;;;;;;;;5031129;28;20053;-74
2024/02/21 11:36:26;;;;;;;14.50;4.00;;;;;;;;;;5032459;28;20029;-75
2024/02/21 11:39:11;;;;;;;16.00;4.53;;;;;;;;;;5034345;28;20036;-75
2024/02/21 11:42:15;;;;;;;15.85;4.85;;;;;;;;;;5034783;28;20048;-74
2024/02/21 11:45:00;;;;;;;15.43;3.90;;;;;;;;;;5031008;28;20018;-76
2024/02/21 11:47:46;;;;;;;20.08;4.72;;;;;;;;;;5022035;28;20037;-74
2024/02/21 11:50:32;;;;;;;31.52;6.03;;;;;;;;;;5018324;28;20026;-74
2024/02/21 11:53:18;;;;;;;17.63;4.55;;;;;;;;;;5023428;28;20038;-73
2024/02/21 11:56:03;;;;;;;17.52;4.90;;;;;;;;;;5031029;28;20137;-74
2024/02/21 11:58:50;;;;;;;27.25;5.50;;;;;;;;;;5029202;28;20022;-74
2024/02/21 12:01:35;;;;;;;17.75;5.57;;;;;;;;;;5019992;28;20096;-74
2024/02/21 12:04:23;;;;;;;27.73;7.18;;;;;;;;;;5024315;28;20521;-74
2024/02/21 12:07:09;;;;;;;23.08;6.28;;;;;;;;;;5031709;28;20029;-73
2024/02/21 12:09:55;;;;;;;19.27;5.88;;;;;;;;;;5031941;28;20021;-74
2024/02/21 12:12:41;;;;;;;17.52;5.22;;;;;;;;;;5031831;28;20498;-74
2024/02/21 12:15:26;;;;;;;19.33;6.07;;;;;;;;;;5030576;28;20037;-74
2024/02/21 12:18:12;;;;;;;22.02;6.10;;;;;;;;;;5019722;28;20029;-73
2024/02/21 12:20:58;;;;;;;20.20;5.93;;;;;;;;;;5024616;28;20032;-73
2024/02/21 12:23:44;;;;;;;32.70;7.68;;;;;;;;;;5026696;28;20154;-74
2024/02/21 12:26:29;;;;;;;30.83;6.03;;;;;;;;;;5028671;28;20112;-74
2024/02/21 12:29:15;;;;;;;23.73;6.07;;;;;;;;;;5026411;28;20028;-74
2024/02/21 12:32:00;;;;;;;17.13;5.50;;;;;;;;;;5025447;28;20025;-74
2024/02/21 12:34:46;;;;;;;21.42;6.43;;;;;;;;;;5023199;28;20073;-74
2024/02/21 12:37:32;;;;;;;20.90;6.60;;;;;;;;;;5018883;28;20565;-74
2024/02/21 12:40:18;;;;;;;18.67;5.60;;;;;;;;;;5022360;28;20025;-73
2024/02/21 12:43:04;;;;;;;11.27;4.63;;;;;;;;;;5026057;28;20545;-74
2024/02/21 12:45:50;;;;;;;14.40;4.72;;;;;;;;;;5021495;28;20033;-74
2024/02/21 12:48:35;;;;;;;16.42;5.22;;;;;;;;;;5023912;28;20083;-73
2024/02/21 12:51:21;;;;;;;15.35;5.38;;;;;;;;;;5013084;28;20018;-74
2024/02/21 12:54:10;;;;;;;13.82;5.18;;;;;;;;;;5025907;28;20037;-74
2024/02/21 12:56:55;;;;;;;10.55;4.28;;;;;;;;;;5030535;28;20027;-74
2024/02/21 12:59:41;;;;;;;11.98;4.55;;;;;;;;;;5017340;28;20025;-75
2024/02/21 13:02:26;;;;;;;13.70;4.93;;;;;;;;;;5021749;28;20022;-75
2024/02/21 13:05:12;;;;;;;13.45;5.60;;;;;;;;;;5032327;28;20363;-74
2024/02/21 13:07:58;;;;;;;11.23;5.72;;;;;;;;;;5021943;28;20021;-73
2024/02/21 13:10:44;;;;;;;13.88;5.93;;;;;;;;;;5028424;28;20029;-73
2024/02/21 13:13:29;;;;;;;13.95;5.93;;;;;;;;;;5033135;28;20022;-74
2024/02/21 13:16:15;;;;;;;21.58;5.63;;;;;;;;;;5025354;28;20395;-74
2024/02/21 13:19:01;;;;;;;18.33;6.78;;;;;;;;;;5028567;28;20026;-73
2024/02/21 13:21:47;;;;;;;18.92;6.38;;;;;;;;;;5032199;28;20056;-74
2024/02/21 13:24:33;;;;;;;18.05;6.45;;;;;;;;;;5031962;28;20053;-74
2024/02/21 13:27:18;;;;;;;17.23;7.53;;;;;;;;;;5032539;28;20487;-74
2024/02/21 13:30:07;;;;;;;21.15;7.20;;;;;;;;;;5031764;28;20026;-74
2024/02/21 13:32:54;;;;;;;24.92;7.13;;;;;;;;;;5031790;28;20460;-74
2024/02/21 13:35:40;;;;;;;20.48;7.80;;;;;;;;;;5032358;28;20032;-74
2024/02/21 13:38:35;;;;;;;34.70;11.68;;;;;;;;;;5069966;28;20400;-73
2024/02/21 13:41:22;;;;;;;24.38;8.85;;;;;;;;;;5069458;28;20163;-73
2024/02/21 13:44:09;;;;;;;18.23;7.88;;;;;;;;;;5068666;28;20174;-73
2024/02/21 13:46:54;;;;;;;22.92;8.02;;;;;;;;;;5048311;28;20495;-72
2024/02/21 13:49:41;;;;;;;27.23;7.85;;;;;;;;;;5030207;28;20465;-72
2024/02/21 13:52:26;;;;;;;22.75;8.80;;;;;;;;;;5039307;28;20028;-72
2024/02/21 13:55:12;;;;;;;29.67;9.05;;;;;;;;;;5052261;28;20033;-72
2024/02/21 13:57:57;;;;;;;35.03;12.20;;;;;;;;;;5077867;28;20028;-72
2024/02/21 14:00:43;;;;;;;33.78;10.45;;;;;;;;;;5076042;28;20028;-72
2024/02/21 14:03:29;;;;;;;30.58;12.57;;;;;;;;;;5071297;28;20031;-73
2024/02/21 14:06:14;;;;;;;39.63;12.80;;;;;;;;;;5062164;28;20072;-73
2024/02/21 14:09:00;;;;;;;28.80;9.57;;;;;;;;;;5079793;28;20053;-71
2024/02/21 14:11:46;;;;;;;27.38;9.38;;;;;;;;;;5059662;28;20032;-73
2024/02/21 14:14:33;;;;;;;24.85;9.10;;;;;;;;;;5043266;28;20025;-72
2024/02/21 14:17:20;;;;;;;18.45;8.25;;;;;;;;;;5049876;28;20033;-73
2024/02/21 14:20:08;;;;;;;22.35;8.93;;;;;;;;;;5059680;28;20068;-74
2024/02/21 14:22:54;;;;;;;30.85;10.00;;;;;;;;;;5041977;28;20029;-72
2024/02/21 14:25:41;;;;;;;19.38;9.13;;;;;;;;;;5060538;28;20032;-72
2024/02/21 14:28:26;;;;;;;27.23;8.88;;;;;;;;;;5051345;28;20029;-72
2024/02/21 14:31:12;;;;;;;29.20;10.93;;;;;;;;;;5051593;28;20021;-72
2024/02/21 14:33:58;;;;;;;25.20;10.35;;;;;;;;;;5054778;28;20087;-72
2024/02/21 14:36:43;;;;;;;36.35;11.55;;;;;;;;;;5060551;28;20490;-72
2024/02/21 14:39:29;;;;;;;30.85;11.93;;;;;;;;;;5053277;28;20573;-71
2024/02/21 14:42:15;;;;;;;36.40;13.85;;;;;;;;;;5054829;28;20060;-72
2024/02/21 14:45:04;;;;;;;30.60;11.35;;;;;;;;;;5054892;28;20548;-71
2024/02/21 14:47:49;;;;;;;37.78;12.98;;;;;;;;;;5050058;28;20075;-72
2024/02/21 14:50:35;;;;;;;37.92;14.93;;;;;;;;;;5043508;28;20021;-71
2024/02/21 14:53:20;;;;;;;35.40;13.52;;;;;;;;;;5037557;28;20025;-71
2024/02/21 14:56:13;;;;;;;33.92;11.93;;;;;;;;;;5045716;28;20032;-71
2024/02/21 14:58:58;;;;;;;32.40;13.93;;;;;;;;;;5041182;28;20069;-72
2024/02/21 15:01:44;;;;;;;37.13;15.40;;;;;;;;;;5037304;28;20048;-72
2024/02/21 15:04:30;;;;;;;35.70;13.27;;;;;;;;;;5042780;28;20032;-72
2024/02/21 15:07:17;;;;;;;44.70;15.80;;;;;;;;;;5028292;28;20024;-71
2024/02/21 15:10:03;;;;;;;38.03;14.27;;;;;;;;;;5029251;28;20028;-73
2024/02/21 15:12:49;;;;;;;35.13;14.55;;;;;;;;;;5023709;28;20034;-73
2024/02/21 15:15:35;;;;;;;39.38;14.80;;;;;;;;;;5047081;28;20081;-73
2024/02/21 15:18:20;;;;;;;35.55;14.63;;;;;;;;;;5048414;28;20100;-73
2024/02/21 15:21:07;;;;;;;41.85;14.80;;;;;;;;;;5037564;28;20083;-73
2024/02/21 15:23:53;;;;;;;38.92;14.30;;;;;;;;;;5043065;28;20029;-73
2024/02/21 15:26:38;;;;;;;38.05;14.48;;;;;;;;;;5042817;28;20053;-72
2024/02/21 15:29:24;;;;;;;34.17;13.60;;;;;;;;;;5042819;28;20040;-73
2024/02/21 15:32:10;;;;;;;41.08;14.57;;;;;;;;;;5036407;28;20498;-73
2024/02/21 15:34:56;;;;;;;35.38;14.35;;;;;;;;;;5024286;28;20139;-72
2024/02/21 15:37:41;;;;;;;40.78;13.95;;;;;;;;;;5039398;28;20028;-73
2024/02/21 15:40:27;;;;;;;36.15;13.30;;;;;;;;;;5026042;28;20029;-72
2024/02/21 15:43:13;;;;;;;36.03;13.95;;;;;;;;;;5039889;28;20052;-72
2024/02/21 15:45:58;;;;;;;31.48;13.07;;;;;;;;;;5037900;28;20033;-73
2024/02/21 15:48:46;;;;;;;30.35;14.45;;;;;;;;;;5026388;28;20021;-73
2024/02/21 15:51:31;;;;;;;34.05;13.52;;;;;;;;;;5042794;28;20040;-73
2024/02/21 15:54:17;;;;;;;41.05;13.63;;;;;;;;;;5042372;28;20044;-73
2024/02/21 15:57:06;;;;;;;33.63;14.82;;;;;;;;;;5041995;28;20565;-73
2024/02/21 15:59:53;;;;;;;32.70;13.18;;;;;;;;;;5035828;28;20036;-72
2024/02/21 16:02:42;;;;;;;36.63;13.40;;;;;;;;;;5058425;28;20044;-72
2024/02/21 16:05:28;;;;;;;31.15;13.73;;;;;;;;;;5036773;28;20035;-72
2024/02/21 16:08:14;;;;;;;36.97;12.18;;;;;;;;;;5073548;28;20389;-73
2024/02/21 16:10:59;;;;;;;27.55;13.57;;;;;;;;;;5045327;28;20025;-73
2024/02/21 16:13:46;;;;;;;36.38;13.35;;;;;;;;;;5059378;28;20017;-73
2024/02/21 16:16:32;;;;;;;27.30;11.18;;;;;;;;;;5072440;28;20386;-72
2024/02/21 16:19:18;;;;;;;36.35;13.40;;;;;;;;;;5064385;28;20033;-72
2024/02/21 16:22:04;;;;;;;30.65;12.50;;;;;;;;;;5045634;28;20100;-72